createdAt,value
2023-05-07T00:00:35.344Z,0.00
2023-05-07T00:02:39.419Z,0.00
2023-05-07T00:03:39.539Z,0.00
2023-05-07T00:05:43.517Z,0.00
2023-05-07T00:06:43.465Z,0.00
2023-05-07T00:08:36.434Z,0.00
2023-05-07T00:09:36.453Z,0.00
2023-05-07T00:11:40.481Z,0.00
2023-05-07T00:12:40.559Z,0.00
2023-05-07T00:14:44.590Z,0.00
2023-05-07T00:15:44.589Z,0.00
2023-05-07T00:17:48.651Z,0.00
2023-05-07T00:18:48.675Z,0.00
2023-05-07T00:20:53.609Z,0.00
2023-05-07T00:21:52.900Z,0.00
2023-05-07T00:23:57.057Z,0.00
2023-05-07T00:24:56.954Z,0.00
2023-05-07T00:27:00.998Z,0.00
2023-05-07T00:28:01.017Z,0.00
2023-05-07T00:30:05.051Z,0.00
2023-05-07T00:31:05.081Z,0.00
2023-05-07T00:33:09.131Z,0.00
2023-05-07T00:34:09.169Z,0.00
2023-05-07T00:36:13.253Z,0.00
2023-05-07T00:37:13.213Z,0.00
2023-05-07T00:39:17.282Z,0.00
2023-05-07T00:40:17.284Z,0.00
2023-05-07T00:42:21.296Z,0.00
2023-05-07T00:43:21.324Z,0.00
2023-05-07T00:45:25.370Z,0.00
2023-05-07T00:46:25.458Z,0.00
2023-05-07T00:48:18.341Z,0.00
2023-05-07T00:49:18.372Z,0.00
2023-05-07T00:51:22.517Z,0.00
2023-05-07T00:52:22.430Z,0.00
2023-05-07T00:54:26.467Z,0.00
2023-05-07T00:55:26.528Z,0.00
2023-05-07T00:57:30.575Z,0.00
2023-05-07T00:58:30.557Z,0.00
2023-05-07T01:00:34.590Z,0.00
2023-05-07T01:01:34.665Z,0.00
2023-05-07T01:03:38.705Z,0.00
2023-05-07T01:04:38.748Z,0.00
2023-05-07T01:06:42.793Z,0.00
2023-05-07T01:07:42.763Z,0.00
2023-05-07T01:09:58.313Z,0.00
2023-05-07T01:10:58.111Z,0.00
2023-05-07T01:13:02.189Z,0.00
2023-05-07T01:14:02.163Z,0.00
2023-05-07T01:16:06.832Z,0.00
2023-05-07T01:17:06.468Z,0.00
2023-05-07T01:19:10.487Z,0.00
2023-05-07T01:20:10.620Z,0.00
2023-05-07T01:22:14.712Z,0.00
2023-05-07T01:23:14.578Z,0.00
2023-05-07T01:25:18.612Z,0.00
2023-05-07T01:26:18.643Z,0.00
2023-05-07T01:28:11.594Z,0.00
2023-05-07T01:29:11.618Z,0.00
2023-05-07T01:31:15.713Z,0.00
2023-05-07T01:32:15.688Z,0.00
2023-05-07T01:34:19.718Z,0.00
2023-05-07T01:35:19.744Z,0.00
2023-05-07T01:37:23.777Z,0.00
2023-05-07T01:38:23.819Z,0.00
2023-05-07T01:40:27.871Z,0.00
2023-05-07T01:41:27.868Z,0.00
2023-05-07T01:43:31.953Z,0.00
2023-05-07T01:44:31.929Z,0.00
2023-05-07T01:46:35.997Z,0.00
2023-05-07T01:47:36.020Z,0.00
2023-05-07T01:49:40.079Z,0.00
2023-05-07T01:50:40.065Z,0.00
2023-05-07T01:52:44.125Z,0.00
2023-05-07T01:53:44.142Z,0.00
2023-05-07T01:55:48.183Z,0.00
2023-05-07T01:56:48.209Z,0.00
2023-05-07T01:58:41.159Z,0.00
2023-05-07T01:59:41.185Z,0.00
2023-05-07T02:01:45.240Z,0.00
2023-05-07T02:02:45.351Z,0.00
2023-05-07T02:04:49.291Z,0.00
2023-05-07T02:05:49.320Z,0.00
2023-05-07T02:07:42.300Z,0.00
2023-05-07T02:08:42.306Z,0.00
2023-05-07T02:10:46.356Z,0.00
2023-05-07T02:11:46.372Z,0.00
2023-05-07T02:13:50.413Z,0.00
2023-05-07T02:14:50.442Z,0.00
2023-05-07T02:16:54.600Z,0.00
2023-05-07T02:17:54.538Z,0.00
2023-05-07T02:19:58.582Z,0.00
2023-05-07T02:20:58.577Z,0.00
2023-05-07T02:23:02.640Z,0.00
2023-05-07T02:24:02.625Z,0.00
2023-05-07T02:26:06.657Z,0.00
2023-05-07T02:27:06.696Z,0.00
2023-05-07T02:28:59.924Z,0.00
2023-05-07T02:29:59.952Z,0.00
2023-05-07T02:32:04.032Z,0.00
2023-05-07T02:33:04.052Z,0.00
2023-05-07T02:35:08.051Z,0.00
2023-05-07T02:36:08.078Z,0.00
2023-05-07T02:38:01.062Z,0.00
2023-05-07T02:39:01.070Z,0.00
2023-05-07T02:41:05.741Z,0.00
2023-05-07T02:42:05.316Z,0.00
2023-05-07T02:44:09.365Z,0.00
2023-05-07T02:45:09.371Z,0.00
2023-05-07T02:47:13.410Z,0.00
2023-05-07T02:48:13.434Z,0.00
2023-05-07T02:50:17.685Z,0.00
2023-05-07T02:51:17.668Z,0.00
2023-05-07T02:52:17.713Z,0.00
2023-05-07T02:53:18.366Z,0.00
2023-05-07T02:54:17.757Z,0.00
2023-05-07T02:55:17.789Z,0.00
2023-05-07T02:56:17.896Z,0.00
2023-05-07T02:57:17.864Z,0.00
2023-05-07T02:58:17.883Z,0.00
2023-05-07T02:59:17.922Z,0.00
2023-05-07T03:00:17.939Z,0.00
2023-05-07T03:01:18.007Z,0.00
2023-05-07T03:02:18.007Z,0.00
2023-05-07T03:03:18.055Z,0.00
2023-05-07T03:04:18.110Z,0.00
2023-05-07T03:05:18.126Z,0.00
2023-05-07T03:06:18.143Z,0.00
2023-05-07T03:07:18.160Z,0.00
2023-05-07T03:08:18.189Z,0.00
2023-05-07T03:09:18.244Z,0.00
2023-05-07T03:10:18.249Z,0.00
2023-05-07T03:11:18.283Z,0.00
2023-05-07T03:12:18.375Z,0.00
2023-05-07T03:13:18.373Z,0.00
2023-05-07T03:14:18.375Z,0.00
2023-05-07T03:15:18.412Z,0.00
2023-05-07T03:16:18.496Z,0.00
2023-05-07T03:17:18.473Z,4.00
2023-05-07T03:18:18.570Z,4.00
2023-05-07T03:19:18.530Z,4.00
2023-05-07T03:20:18.574Z,0.00
2023-05-07T03:21:18.596Z,0.00
2023-05-07T03:22:18.658Z,0.00
2023-05-07T03:23:18.663Z,0.00
2023-05-07T03:24:18.676Z,0.00
2023-05-07T03:25:18.713Z,4.00
2023-05-07T03:26:18.753Z,4.00
2023-05-07T03:27:18.767Z,4.00
2023-05-07T03:28:18.804Z,4.00
2023-05-07T03:29:18.834Z,0.00
2023-05-07T03:30:19.985Z,4.00
2023-05-07T03:31:18.915Z,4.00
2023-05-07T03:32:18.911Z,4.00
2023-05-07T03:33:18.953Z,4.00
2023-05-07T03:34:18.992Z,4.00
2023-05-07T03:35:19.025Z,8.00
2023-05-07T03:36:19.048Z,8.00
2023-05-07T03:37:19.082Z,4.00
2023-05-07T03:38:19.104Z,8.00
2023-05-07T03:39:19.144Z,8.00
2023-05-07T03:40:19.177Z,8.00
2023-05-07T03:41:19.206Z,12.00
2023-05-07T03:42:19.232Z,12.00
2023-05-07T03:43:19.255Z,8.00
2023-05-07T03:44:19.361Z,12.00
2023-05-07T03:45:19.316Z,12.00
2023-05-07T03:46:19.370Z,12.00
2023-05-07T03:47:19.387Z,12.00
2023-05-07T03:48:19.423Z,16.00
2023-05-07T03:49:19.446Z,16.00
2023-05-07T03:50:19.465Z,12.00
2023-05-07T03:51:19.506Z,12.00
2023-05-07T03:52:19.546Z,16.00
2023-05-07T03:53:19.571Z,20.00
2023-05-07T03:54:19.609Z,20.00
2023-05-07T03:55:19.635Z,20.00
2023-05-07T03:56:19.837Z,20.00
2023-05-07T03:57:19.692Z,16.00
2023-05-07T03:58:19.723Z,20.00
2023-05-07T03:59:19.756Z,20.00
2023-05-07T04:00:19.884Z,20.00
2023-05-07T04:01:19.823Z,20.00
2023-05-07T04:02:19.871Z,24.00
2023-05-07T04:03:19.967Z,20.00
2023-05-07T04:04:19.983Z,24.00
2023-05-07T04:05:19.949Z,24.00
2023-05-07T04:06:19.993Z,28.00
2023-05-07T04:07:20.009Z,28.00
2023-05-07T04:08:20.036Z,28.00
2023-05-07T04:09:20.057Z,28.00
2023-05-07T04:10:20.100Z,28.00
2023-05-07T04:11:20.126Z,32.00
2023-05-07T04:12:20.155Z,36.00
2023-05-07T04:13:20.278Z,40.00
2023-05-07T04:14:20.220Z,40.00
2023-05-07T04:15:20.253Z,40.00
2023-05-07T04:16:20.318Z,44.00
2023-05-07T04:17:20.311Z,44.00
2023-05-07T04:18:20.348Z,44.00
2023-05-07T04:19:20.370Z,44.00
2023-05-07T04:20:20.395Z,48.00
2023-05-07T04:21:20.446Z,48.00
2023-05-07T04:22:20.477Z,52.00
2023-05-07T04:23:20.491Z,60.00
2023-05-07T04:24:20.535Z,68.00
2023-05-07T04:25:20.557Z,80.00
2023-05-07T04:26:20.596Z,84.00
2023-05-07T04:27:20.642Z,88.00
2023-05-07T04:28:20.673Z,88.00
2023-05-07T04:29:20.694Z,84.00
2023-05-07T04:30:20.704Z,84.00
2023-05-07T04:31:20.850Z,84.00
2023-05-07T04:32:20.840Z,84.00
2023-05-07T04:33:20.802Z,88.00
2023-05-07T04:34:20.835Z,92.00
2023-05-07T04:35:20.864Z,92.00
2023-05-07T04:36:20.894Z,92.00
2023-05-07T04:37:20.917Z,96.00
2023-05-07T04:38:20.953Z,96.00
2023-05-07T04:39:21.004Z,100.00
2023-05-07T04:40:21.015Z,100.00
2023-05-07T04:41:21.057Z,100.00
2023-05-07T04:42:21.085Z,104.00
2023-05-07T04:43:21.121Z,104.00
2023-05-07T04:44:21.147Z,112.00
2023-05-07T04:45:21.175Z,112.00
2023-05-07T04:46:21.235Z,116.00
2023-05-07T04:47:21.222Z,124.00
2023-05-07T04:48:21.265Z,124.00
2023-05-07T04:49:21.295Z,128.00
2023-05-07T04:50:21.318Z,132.00
2023-05-07T04:51:21.349Z,136.00
2023-05-07T04:52:21.386Z,140.00
2023-05-07T04:53:21.412Z,140.00
2023-05-07T04:54:21.435Z,136.00
2023-05-07T04:55:21.471Z,128.00
2023-05-07T04:56:21.502Z,124.00
2023-05-07T04:57:21.540Z,124.00
2023-05-07T04:58:21.554Z,128.00
2023-05-07T04:59:21.583Z,128.00
2023-05-07T05:00:21.622Z,132.00
2023-05-07T05:01:21.700Z,144.00
2023-05-07T05:02:21.767Z,152.00
2023-05-07T05:03:21.829Z,156.00
2023-05-07T05:04:21.817Z,160.00
2023-05-07T05:05:21.790Z,168.00
2023-05-07T05:06:21.824Z,172.00
2023-05-07T05:07:21.848Z,176.00
2023-05-07T05:08:21.867Z,176.00
2023-05-07T05:09:21.907Z,180.00
2023-05-07T05:10:23.275Z,180.00
2023-05-07T05:11:21.973Z,180.00
2023-05-07T05:12:22.002Z,180.00
2023-05-07T05:13:22.150Z,180.00
2023-05-07T05:14:22.065Z,200.00
2023-05-07T05:15:22.096Z,216.00
2023-05-07T05:16:22.207Z,236.00
2023-05-07T05:17:22.167Z,260.00
2023-05-07T05:18:22.193Z,284.00
2023-05-07T05:19:22.220Z,316.00
2023-05-07T05:20:22.404Z,292.00
2023-05-07T05:21:22.269Z,284.00
2023-05-07T05:22:22.303Z,288.00
2023-05-07T05:23:22.339Z,284.00
2023-05-07T05:24:22.374Z,272.00
2023-05-07T05:25:22.395Z,292.00
2023-05-07T05:26:22.435Z,288.00
2023-05-07T05:27:22.472Z,300.00
2023-05-07T05:28:22.527Z,308.00
2023-05-07T05:29:22.580Z,312.00
2023-05-07T05:30:23.177Z,312.00
2023-05-07T05:31:22.690Z,304.00
2023-05-07T05:32:22.695Z,316.00
2023-05-07T05:33:22.645Z,328.00
2023-05-07T05:34:22.678Z,324.00
2023-05-07T05:35:22.707Z,304.00
2023-05-07T05:36:22.749Z,272.00
2023-05-07T05:37:22.799Z,276.00
2023-05-07T05:38:22.809Z,292.00
2023-05-07T05:39:22.840Z,312.00
2023-05-07T05:40:22.864Z,308.00
2023-05-07T05:41:22.894Z,308.00
2023-05-07T05:42:22.925Z,316.00
2023-05-07T05:43:22.946Z,316.00
2023-05-07T05:44:22.985Z,336.00
2023-05-07T05:45:23.022Z,376.00
2023-05-07T05:46:23.115Z,384.00
2023-05-07T05:47:23.081Z,356.00
2023-05-07T05:48:23.115Z,340.00
2023-05-07T05:49:23.146Z,320.00
2023-05-07T05:50:23.167Z,332.00
2023-05-07T05:51:23.212Z,344.00
2023-05-07T05:52:23.307Z,368.00
2023-05-07T05:53:23.255Z,376.00
2023-05-07T05:54:23.299Z,380.00
2023-05-07T05:55:23.353Z,404.00
2023-05-07T05:56:23.371Z,420.00
2023-05-07T05:57:23.402Z,436.00
2023-05-07T05:58:23.417Z,444.00
2023-05-07T05:59:23.477Z,440.00
2023-05-07T06:00:23.559Z,432.00
2023-05-07T06:01:23.508Z,432.00
2023-05-07T06:02:23.608Z,448.00
2023-05-07T06:03:23.620Z,508.00
2023-05-07T06:04:23.612Z,588.00
2023-05-07T06:05:23.687Z,520.00
2023-05-07T06:06:23.671Z,484.00
2023-05-07T06:07:23.700Z,532.00
2023-05-07T06:08:23.735Z,512.00
2023-05-07T06:09:23.756Z,536.00
2023-05-07T06:10:23.792Z,512.00
2023-05-07T06:11:23.831Z,508.00
2023-05-07T06:12:23.860Z,536.00
2023-05-07T06:13:23.953Z,512.00
2023-05-07T06:14:23.908Z,484.00
2023-05-07T06:15:23.958Z,488.00
2023-05-07T06:16:24.046Z,528.00
2023-05-07T06:17:24.033Z,536.00
2023-05-07T06:18:24.045Z,532.00
2023-05-07T06:19:24.097Z,536.00
2023-05-07T06:20:24.111Z,516.00
2023-05-07T06:21:24.169Z,492.00
2023-05-07T06:22:24.174Z,556.00
2023-05-07T06:23:24.212Z,584.00
2023-05-07T06:24:24.487Z,660.00
2023-05-07T06:25:24.292Z,612.00
2023-05-07T06:26:24.311Z,580.00
2023-05-07T06:27:24.367Z,628.00
2023-05-07T06:28:24.351Z,588.00
2023-05-07T06:29:24.379Z,588.00
2023-05-07T06:30:24.448Z,552.00
2023-05-07T06:31:24.486Z,540.00
2023-05-07T06:32:24.513Z,548.00
2023-05-07T06:33:24.519Z,544.00
2023-05-07T06:34:24.559Z,568.00
2023-05-07T06:35:24.605Z,568.00
2023-05-07T06:36:24.651Z,548.00
2023-05-07T06:37:24.634Z,516.00
2023-05-07T06:38:24.667Z,480.00
2023-05-07T06:39:24.713Z,460.00
2023-05-07T06:40:24.735Z,476.00
2023-05-07T06:41:24.759Z,512.00
2023-05-07T06:42:24.809Z,540.00
2023-05-07T06:43:24.820Z,536.00
2023-05-07T06:44:24.862Z,500.00
2023-05-07T06:45:24.902Z,488.00
2023-05-07T06:46:24.985Z,516.00
2023-05-07T06:47:24.984Z,544.00
2023-05-07T06:48:24.994Z,528.00
2023-05-07T06:49:25.024Z,516.00
2023-05-07T06:50:25.065Z,508.00
2023-05-07T06:51:25.077Z,496.00
2023-05-07T06:52:25.118Z,524.00
2023-05-07T06:53:25.134Z,560.00
2023-05-07T06:54:25.182Z,568.00
2023-05-07T06:55:25.216Z,564.00
2023-05-07T06:56:25.341Z,572.00
2023-05-07T06:57:25.287Z,612.00
2023-05-07T06:58:25.305Z,664.00
2023-05-07T06:59:25.348Z,700.00
2023-05-07T07:00:25.382Z,692.00
2023-05-07T07:01:25.484Z,728.00
2023-05-07T07:02:25.465Z,836.00
2023-05-07T07:03:25.473Z,1016.00
2023-05-07T07:04:25.604Z,892.00
2023-05-07T07:05:25.535Z,788.00
2023-05-07T07:06:25.565Z,896.00
2023-05-07T07:07:25.596Z,968.00
2023-05-07T07:08:25.651Z,820.00
2023-05-07T07:09:25.658Z,968.00
2023-05-07T07:10:25.719Z,852.00
2023-05-07T07:11:25.749Z,824.00
2023-05-07T07:12:26.005Z,956.00
2023-05-07T07:13:25.863Z,880.00
2023-05-07T07:14:25.828Z,908.00
2023-05-07T07:15:25.852Z,956.00
2023-05-07T07:16:25.902Z,1016.00
2023-05-07T07:17:25.972Z,788.00
2023-05-07T07:18:25.933Z,768.00
2023-05-07T07:19:25.978Z,812.00
2023-05-07T07:20:26.016Z,896.00
2023-05-07T07:21:26.046Z,1052.00
2023-05-07T07:22:26.068Z,1060.00
2023-05-07T07:23:26.090Z,1068.00
2023-05-07T07:24:26.141Z,852.00
2023-05-07T07:25:26.174Z,912.00
2023-05-07T07:26:26.195Z,1080.00
2023-05-07T07:27:26.269Z,1092.00
2023-05-07T07:28:26.338Z,1056.00
2023-05-07T07:29:26.285Z,1044.00
2023-05-07T07:30:26.329Z,992.00
2023-05-07T07:31:26.446Z,1116.00
2023-05-07T07:32:26.403Z,808.00
2023-05-07T07:33:26.432Z,876.00
2023-05-07T07:34:26.455Z,888.00
2023-05-07T07:35:26.490Z,876.00
2023-05-07T07:36:32.140Z,1192.00
2023-05-07T07:37:26.570Z,936.00
2023-05-07T07:38:26.596Z,1192.00
2023-05-07T07:39:26.627Z,1108.00
2023-05-07T07:40:26.658Z,1172.00
2023-05-07T07:41:26.680Z,1184.00
2023-05-07T07:42:26.716Z,1184.00
2023-05-07T07:43:26.741Z,1172.00
2023-05-07T07:44:26.849Z,1160.00
2023-05-07T07:45:26.834Z,1160.00
2023-05-07T07:46:26.856Z,1204.00
2023-05-07T07:47:26.899Z,1188.00
2023-05-07T07:48:26.927Z,832.00
2023-05-07T07:49:26.957Z,1204.00
2023-05-07T07:50:42.961Z,1212.00
2023-05-07T07:51:27.024Z,1228.00
2023-05-07T07:52:27.037Z,1240.00
2023-05-07T07:53:27.090Z,1268.00
2023-05-07T07:54:27.124Z,1312.00
2023-05-07T07:55:27.163Z,1108.00
2023-05-07T07:56:27.170Z,1340.00
2023-05-07T07:57:27.199Z,1364.00
2023-05-07T07:58:27.255Z,1404.00
2023-05-07T07:59:27.279Z,1404.00
2023-05-07T08:00:27.326Z,1388.00
2023-05-07T08:01:27.358Z,1392.00
2023-05-07T08:02:27.425Z,1400.00
2023-05-07T08:03:27.507Z,1416.00
2023-05-07T08:04:27.511Z,1408.00
2023-05-07T08:05:27.476Z,1432.00
2023-05-07T08:06:27.518Z,1448.00
2023-05-07T08:07:27.532Z,1472.00
2023-05-07T08:08:27.573Z,1484.00
2023-05-07T08:09:27.618Z,1484.00
2023-05-07T08:10:27.671Z,1484.00
2023-05-07T08:11:27.675Z,1436.00
2023-05-07T08:12:27.710Z,1516.00
2023-05-07T08:13:27.813Z,1012.00
2023-05-07T08:14:27.804Z,1516.00
2023-05-07T08:15:27.819Z,1552.00
2023-05-07T08:16:27.918Z,1588.00
2023-05-07T08:17:27.940Z,1580.00
2023-05-07T08:18:27.911Z,1592.00
2023-05-07T08:19:27.953Z,1628.00
2023-05-07T08:20:27.985Z,1612.00
2023-05-07T08:21:28.029Z,1600.00
2023-05-07T08:22:28.073Z,1588.00
2023-05-07T08:23:28.078Z,1576.00
2023-05-07T08:24:28.127Z,1512.00
2023-05-07T08:25:28.159Z,1488.00
2023-05-07T08:26:28.188Z,1584.00
2023-05-07T08:27:28.221Z,1580.00
2023-05-07T08:28:28.281Z,1608.00
2023-05-07T08:29:28.287Z,1620.00
2023-05-07T08:30:28.363Z,1464.00
2023-05-07T08:31:28.376Z,1564.00
2023-05-07T08:32:28.514Z,1544.00
2023-05-07T08:33:28.431Z,1612.00
2023-05-07T08:34:28.461Z,1056.00
2023-05-07T08:35:28.490Z,1644.00
2023-05-07T08:36:28.570Z,912.00
2023-05-07T08:37:28.562Z,968.00
2023-05-07T08:38:28.610Z,1008.00
2023-05-07T08:39:28.637Z,1588.00
2023-05-07T08:40:28.682Z,1628.00
2023-05-07T08:41:28.701Z,1160.00
2023-05-07T08:42:28.732Z,1232.00
2023-05-07T08:43:28.774Z,1628.00
2023-05-07T08:44:28.809Z,1696.00
2023-05-07T08:45:28.874Z,1720.00
2023-05-07T08:46:28.991Z,1680.00
2023-05-07T08:47:28.929Z,1708.00
2023-05-07T08:48:29.009Z,1708.00
2023-05-07T08:49:28.970Z,1668.00
2023-05-07T08:50:28.995Z,1680.00
2023-05-07T08:51:29.178Z,968.00
2023-05-07T08:52:29.078Z,1708.00
2023-05-07T08:53:29.119Z,1100.00
2023-05-07T08:54:29.154Z,1796.00
2023-05-07T08:55:29.178Z,1828.00
2023-05-07T08:56:29.225Z,1056.00
2023-05-07T08:57:29.276Z,1044.00
2023-05-07T08:58:29.284Z,1848.00
2023-05-07T08:59:29.322Z,1788.00
2023-05-07T09:00:29.359Z,1788.00
2023-05-07T09:01:29.423Z,1808.00
2023-05-07T09:02:29.476Z,1804.00
2023-05-07T09:03:29.468Z,1488.00
2023-05-07T09:04:29.566Z,1824.00
2023-05-07T09:05:29.532Z,1468.00
2023-05-07T09:06:29.551Z,1796.00
2023-05-07T09:07:29.596Z,1812.00
2023-05-07T09:08:29.635Z,1836.00
2023-05-07T09:09:29.659Z,1796.00
2023-05-07T09:10:29.704Z,1816.00
2023-05-07T09:11:29.753Z,1836.00
2023-05-07T09:12:29.774Z,1876.00
2023-05-07T09:13:29.837Z,1888.00
2023-05-07T09:14:29.850Z,1852.00
2023-05-07T09:15:29.882Z,1828.00
2023-05-07T09:16:29.924Z,1896.00
2023-05-07T09:17:29.979Z,1868.00
2023-05-07T09:18:29.994Z,1880.00
2023-05-07T09:19:30.030Z,1880.00
2023-05-07T09:20:30.129Z,1892.00
2023-05-07T09:21:30.106Z,1688.00
2023-05-07T09:22:30.123Z,1908.00
2023-05-07T09:23:30.148Z,1352.00
2023-05-07T09:24:30.199Z,1056.00
2023-05-07T09:25:30.235Z,1456.00
2023-05-07T09:26:30.280Z,1872.00
2023-05-07T09:27:30.294Z,1988.00
2023-05-07T09:28:30.341Z,1612.00
2023-05-07T09:29:30.367Z,1936.00
2023-05-07T09:30:30.418Z,1760.00
2023-05-07T09:31:30.481Z,1820.00
2023-05-07T09:32:30.545Z,1764.00
2023-05-07T09:33:30.522Z,1732.00
2023-05-07T09:34:30.548Z,1992.00
2023-05-07T09:35:30.593Z,1516.00
2023-05-07T09:36:30.711Z,1964.00
2023-05-07T09:37:30.670Z,1992.00
2023-05-07T09:38:30.687Z,2016.00
2023-05-07T09:39:30.737Z,2016.00
2023-05-07T09:40:30.771Z,1436.00
2023-05-07T09:41:30.802Z,1960.00
2023-05-07T09:42:30.841Z,1960.00
2023-05-07T09:43:30.876Z,1132.00
2023-05-07T09:44:30.930Z,1856.00
2023-05-07T09:45:30.955Z,1948.00
2023-05-07T09:46:31.109Z,1880.00
2023-05-07T09:47:31.095Z,1808.00
2023-05-07T09:48:31.111Z,1872.00
2023-05-07T09:49:31.121Z,1572.00
2023-05-07T09:50:31.141Z,1144.00
2023-05-07T09:51:31.181Z,1336.00
2023-05-07T09:52:31.276Z,1036.00
2023-05-07T09:53:31.246Z,1132.00
2023-05-07T09:54:31.278Z,1960.00
2023-05-07T09:55:31.311Z,1956.00
2023-05-07T09:56:31.354Z,1388.00
2023-05-07T09:57:31.402Z,1656.00
2023-05-07T09:58:31.410Z,1492.00
2023-05-07T09:59:31.454Z,2000.00
2023-05-07T10:00:31.512Z,1988.00
2023-05-07T10:01:31.652Z,1992.00
2023-05-07T10:02:31.632Z,1976.00
2023-05-07T10:03:31.677Z,1988.00
2023-05-07T10:04:31.638Z,2032.00
2023-05-07T10:05:31.679Z,1196.00
2023-05-07T10:06:31.704Z,1228.00
2023-05-07T10:07:31.751Z,2116.00
2023-05-07T10:08:31.819Z,1120.00
2023-05-07T10:09:31.824Z,1140.00
2023-05-07T10:10:31.857Z,1108.00
2023-05-07T10:11:31.882Z,1448.00
2023-05-07T10:12:31.926Z,1176.00
2023-05-07T10:13:31.999Z,1200.00
2023-05-07T10:14:32.010Z,1220.00
2023-05-07T10:15:32.034Z,1168.00
2023-05-07T10:16:32.084Z,1160.00
2023-05-07T10:17:32.248Z,1172.00
2023-05-07T10:18:32.170Z,1188.00
2023-05-07T10:19:32.177Z,1196.00
2023-05-07T10:20:32.211Z,1188.00
2023-05-07T10:21:32.239Z,1152.00
2023-05-07T10:22:32.277Z,1140.00
2023-05-07T10:23:32.328Z,1176.00
2023-05-07T10:24:32.360Z,1264.00
2023-05-07T10:25:32.426Z,1192.00
2023-05-07T10:26:32.445Z,1208.00
2023-05-07T10:27:32.465Z,1188.00
2023-05-07T10:28:32.523Z,1168.00
2023-05-07T10:29:32.577Z,1140.00
2023-05-07T10:30:33.173Z,1256.00
2023-05-07T10:31:32.799Z,1176.00
2023-05-07T10:32:32.665Z,1160.00
2023-05-07T10:33:32.683Z,1124.00
2023-05-07T10:34:32.725Z,1108.00
2023-05-07T10:35:32.757Z,1116.00
2023-05-07T10:36:32.788Z,1092.00
2023-05-07T10:37:32.827Z,1116.00
2023-05-07T10:38:32.871Z,1136.00
2023-05-07T10:39:32.905Z,1188.00
2023-05-07T10:40:32.945Z,1188.00
2023-05-07T10:41:32.976Z,1168.00
2023-05-07T10:42:33.014Z,1184.00
2023-05-07T10:43:33.047Z,1184.00
2023-05-07T10:44:33.080Z,1220.00
2023-05-07T10:45:33.119Z,1256.00
2023-05-07T10:46:33.237Z,1240.00
2023-05-07T10:47:33.274Z,1236.00
2023-05-07T10:48:33.356Z,1196.00
2023-05-07T10:49:33.274Z,1204.00
2023-05-07T10:50:33.357Z,1296.00
2023-05-07T10:51:33.545Z,1552.00
2023-05-07T10:52:33.382Z,2092.00
2023-05-07T10:53:33.410Z,1224.00
2023-05-07T10:54:34.361Z,1112.00
2023-05-07T10:55:33.478Z,1164.00
2023-05-07T10:56:33.633Z,1156.00
2023-05-07T10:57:33.552Z,1684.00
2023-05-07T10:58:33.591Z,1208.00
2023-05-07T10:59:33.628Z,1232.00
2023-05-07T11:01:33.863Z,1332.00
2023-05-07T11:02:33.750Z,2296.00
2023-05-07T11:03:33.765Z,2116.00
2023-05-07T11:04:33.820Z,2160.00
2023-05-07T11:05:36.634Z,1328.00
2023-05-07T11:06:33.876Z,1348.00
2023-05-07T11:07:33.913Z,1324.00
2023-05-07T11:08:33.930Z,1940.00
2023-05-07T11:09:33.980Z,1252.00
2023-05-07T11:10:34.018Z,1288.00
2023-05-07T11:11:36.042Z,1340.00
2023-05-07T11:12:34.279Z,2252.00
2023-05-07T11:13:34.116Z,1420.00
2023-05-07T11:14:34.156Z,2088.00
2023-05-07T11:15:34.208Z,1480.00
2023-05-07T11:16:34.282Z,2264.00
2023-05-07T11:17:36.999Z,1368.00
2023-05-07T11:18:34.292Z,2176.00
2023-05-07T11:19:34.340Z,1800.00
2023-05-07T11:20:34.380Z,1776.00
2023-05-07T11:21:34.407Z,1988.00
2023-05-07T11:22:34.446Z,1616.00
2023-05-07T11:23:34.505Z,1456.00
2023-05-07T11:24:34.519Z,1388.00
2023-05-07T11:25:34.558Z,2180.00
2023-05-07T11:26:34.604Z,2048.00
2023-05-07T11:27:34.633Z,1452.00
2023-05-07T11:28:34.727Z,2136.00
2023-05-07T11:29:34.709Z,1416.00
2023-05-07T11:30:34.736Z,1352.00
2023-05-07T11:31:34.886Z,2200.00
2023-05-07T11:32:34.818Z,2152.00
2023-05-07T11:33:34.857Z,2156.00
2023-05-07T11:34:34.866Z,2208.00
2023-05-07T11:35:37.020Z,2236.00
2023-05-07T11:36:34.977Z,2224.00
2023-05-07T11:37:34.992Z,2004.00
2023-05-07T11:38:35.023Z,2188.00
2023-05-07T11:39:35.060Z,2184.00
2023-05-07T11:40:35.099Z,2188.00
2023-05-07T11:41:35.134Z,2200.00
2023-05-07T11:42:35.168Z,2208.00
2023-05-07T11:43:35.202Z,2128.00
2023-05-07T11:44:35.252Z,2108.00
2023-05-07T11:45:35.310Z,2176.00
2023-05-07T11:46:35.404Z,2228.00
2023-05-07T11:47:35.401Z,2244.00
2023-05-07T11:48:35.385Z,1956.00
2023-05-07T11:49:35.462Z,1672.00
2023-05-07T11:50:35.467Z,2252.00
2023-05-07T11:51:35.576Z,1708.00
2023-05-07T11:52:35.550Z,2332.00
2023-05-07T11:53:35.582Z,1360.00
2023-05-07T11:54:35.619Z,2068.00
2023-05-07T11:55:35.668Z,2288.00
2023-05-07T11:56:35.693Z,1384.00
2023-05-07T11:57:35.726Z,1412.00
2023-05-07T11:58:35.755Z,1372.00
2023-05-07T11:59:35.809Z,1416.00
2023-05-07T12:00:35.842Z,1420.00
2023-05-07T12:01:35.935Z,1420.00
2023-05-07T12:02:36.069Z,1432.00
2023-05-07T12:03:36.628Z,1536.00
2023-05-07T12:04:36.019Z,1620.00
2023-05-07T12:05:36.041Z,1496.00
2023-05-07T12:06:36.102Z,1460.00
2023-05-07T12:07:36.115Z,2328.00
2023-05-07T12:08:36.146Z,1536.00
2023-05-07T12:09:36.230Z,2372.00
2023-05-07T12:10:36.233Z,1568.00
2023-05-07T12:11:36.249Z,2292.00
2023-05-07T12:12:36.299Z,2248.00
2023-05-07T12:13:36.322Z,2220.00
2023-05-07T12:14:36.359Z,2248.00
2023-05-07T12:15:36.417Z,2228.00
2023-05-07T12:16:36.458Z,2216.00
2023-05-07T12:17:36.473Z,1916.00
2023-05-07T12:18:36.508Z,2304.00
2023-05-07T12:19:36.595Z,1924.00
2023-05-07T12:20:36.599Z,2184.00
2023-05-07T12:21:36.617Z,2168.00
2023-05-07T12:22:36.648Z,2124.00
2023-05-07T12:23:36.730Z,2100.00
2023-05-07T12:24:36.753Z,2124.00
2023-05-07T12:25:36.772Z,2076.00
2023-05-07T12:26:36.957Z,2064.00
2023-05-07T12:27:36.859Z,1688.00
2023-05-07T12:28:36.875Z,2096.00
2023-05-07T12:29:36.947Z,2112.00
2023-05-07T12:30:36.971Z,2144.00
2023-05-07T12:31:37.030Z,1984.00
2023-05-07T12:32:37.036Z,1868.00
2023-05-07T12:33:37.242Z,1748.00
2023-05-07T12:34:37.102Z,1672.00
2023-05-07T12:35:37.145Z,2068.00
2023-05-07T12:36:37.174Z,2076.00
2023-05-07T12:37:37.239Z,1464.00
2023-05-07T12:38:37.248Z,1460.00
2023-05-07T12:39:37.303Z,1792.00
2023-05-07T12:40:37.383Z,1916.00
2023-05-07T12:41:37.363Z,2008.00
2023-05-07T12:42:37.474Z,2028.00
2023-05-07T12:43:37.456Z,2016.00
2023-05-07T12:44:37.497Z,1660.00
2023-05-07T12:45:37.536Z,1432.00
2023-05-07T12:46:37.626Z,1744.00
2023-05-07T12:47:37.669Z,1300.00
2023-05-07T12:48:37.639Z,1812.00
2023-05-07T12:49:37.673Z,1344.00
2023-05-07T12:50:37.721Z,1296.00
2023-05-07T12:51:37.756Z,1284.00
2023-05-07T12:52:37.792Z,1288.00
2023-05-07T12:53:37.830Z,1836.00
2023-05-07T12:54:37.872Z,1848.00
2023-05-07T12:55:37.928Z,1848.00
2023-05-07T12:56:37.941Z,1540.00
2023-05-07T12:57:37.986Z,1848.00
2023-05-07T12:58:38.025Z,1852.00
2023-05-07T12:59:38.090Z,1864.00
2023-05-07T13:00:38.084Z,1836.00
2023-05-07T13:01:38.206Z,1560.00
2023-05-07T13:02:38.262Z,1328.00
2023-05-07T13:03:38.406Z,1776.00
2023-05-07T13:04:38.514Z,1780.00
2023-05-07T13:05:38.282Z,1584.00
2023-05-07T13:06:38.326Z,1760.00
2023-05-07T13:07:38.365Z,1784.00
2023-05-07T13:08:38.392Z,1776.00
2023-05-07T13:09:38.436Z,1752.00
2023-05-07T13:10:38.470Z,1796.00
2023-05-07T13:11:38.526Z,1772.00
2023-05-07T13:12:38.709Z,1728.00
2023-05-07T13:13:38.667Z,1792.00
2023-05-07T13:14:38.615Z,1544.00
2023-05-07T13:15:38.672Z,1316.00
2023-05-07T13:16:38.736Z,1304.00
2023-05-07T13:17:38.781Z,1280.00
2023-05-07T13:18:38.851Z,1300.00
2023-05-07T13:19:38.814Z,1368.00
2023-05-07T13:20:38.853Z,1716.00
2023-05-07T13:21:38.880Z,1360.00
2023-05-07T13:22:38.922Z,1524.00
2023-05-07T13:23:38.933Z,1320.00
2023-05-07T13:24:39.061Z,1232.00
2023-05-07T13:25:39.259Z,1260.00
2023-05-07T13:26:39.065Z,1340.00
2023-05-07T13:27:39.132Z,1464.00
2023-05-07T13:28:39.155Z,1688.00
2023-05-07T13:29:39.187Z,1272.00